Time;durP1;ratioP1;P1;durP2;ratioP2;P2;SDS_P1;SDS_P2;PMS_P1;PMS_P2;Temp;Humidity;BMP_temperature;BMP_pressure;BME280_temperature;BME280_humidity;BME280_pressure;Samples;Min_cycle;Max_cycle;Signal;HPM_P1;HPM_P2
2022/05/15 00:02:07;;;;;;;13.30;5.88;;;;;;;;;;5051148;28;20040;-28
2022/05/15 00:04:33;;;;;;;21.15;5.90;;;;;;;;;;5046170;28;20072;-30
2022/05/15 00:06:59;;;;;;;27.08;8.30;;;;;;;;;;5033163;28;20041;-28
2022/05/15 00:09:25;;;;;;;18.58;6.53;;;;;;;;;;5049123;28;20043;-29
2022/05/15 00:11:52;;;;;;;24.27;7.55;;;;;;;;;;5051036;28;20064;-29
2022/05/15 00:14:18;;;;;;;18.60;6.60;;;;;;;;;;5051539;28;20439;-28
2022/05/15 00:16:44;;;;;;;18.33;5.93;;;;;;;;;;5036514;28;20128;-29
2022/05/15 00:19:11;;;;;;;20.67;6.07;;;;;;;;;;5038654;28;20045;-29
2022/05/15 00:21:37;;;;;;;16.98;6.30;;;;;;;;;;5046991;28;20037;-30
2022/05/15 00:24:07;;;;;;;23.00;7.22;;;;;;;;;;5051295;28;20390;-29
2022/05/15 00:26:33;;;;;;;18.77;6.80;;;;;;;;;;5049981;28;20393;-29
2022/05/15 00:28:59;;;;;;;18.48;6.57;;;;;;;;;;5032777;28;20077;-31
2022/05/15 00:31:26;;;;;;;17.30;6.78;;;;;;;;;;5031786;28;20041;-28
2022/05/15 00:33:53;;;;;;;16.15;6.18;;;;;;;;;;5051597;28;20049;-28
2022/05/15 00:36:19;;;;;;;24.08;7.20;;;;;;;;;;5034186;28;20045;-28
2022/05/15 00:38:45;;;;;;;21.75;7.15;;;;;;;;;;5050165;28;20037;-29
2022/05/15 00:41:12;;;;;;;16.88;6.30;;;;;;;;;;5051820;28;20044;-28
2022/05/15 00:43:49;;;;;;;16.08;6.43;;;;;;;;;;5050980;28;20055;-28
2022/05/15 00:46:15;;;;;;;21.17;7.93;;;;;;;;;;5051700;28;20047;-28
2022/05/15 00:48:42;;;;;;;19.55;7.35;;;;;;;;;;5051273;28;20045;-28
2022/05/15 00:51:15;;;;;;;18.20;6.70;;;;;;;;;;5049321;28;20119;-28
2022/05/15 00:53:41;;;;;;;17.55;6.45;;;;;;;;;;5051622;28;20044;-28
2022/05/15 00:56:08;;;;;;;19.65;6.90;;;;;;;;;;5045335;28;20044;-28
2022/05/15 00:58:36;;;;;;;16.27;6.03;;;;;;;;;;5035420;28;20076;-28
2022/05/15 01:01:03;;;;;;;21.77;6.90;;;;;;;;;;5031181;28;20045;-27
2022/05/15 01:03:29;;;;;;;19.02;6.68;;;;;;;;;;5043499;28;20034;-28
2022/05/15 01:05:56;;;;;;;18.80;6.15;;;;;;;;;;5031751;28;20154;-30
2022/05/15 01:08:23;;;;;;;24.15;7.78;;;;;;;;;;5044650;28;20048;-28
2022/05/15 01:10:51;;;;;;;18.33;6.30;;;;;;;;;;5051249;28;20536;-28
2022/05/15 01:13:18;;;;;;;18.63;6.18;;;;;;;;;;5050214;28;20115;-27
2022/05/15 01:15:45;;;;;;;21.00;7.20;;;;;;;;;;5040461;28;20117;-28
2022/05/15 01:18:11;;;;;;;21.60;7.35;;;;;;;;;;5037710;28;20069;-28
2022/05/15 01:20:38;;;;;;;20.25;6.95;;;;;;;;;;5049561;28;20050;-28
2022/05/15 01:23:04;;;;;;;18.20;6.28;;;;;;;;;;5034733;28;20117;-28
2022/05/15 01:25:33;;;;;;;19.02;6.47;;;;;;;;;;5021292;28;20033;-29
2022/05/15 01:28:05;;;;;;;18.13;6.97;;;;;;;;;;5037995;28;20107;-29
2022/05/15 01:30:32;;;;;;;21.83;6.90;;;;;;;;;;5047244;28;20350;-28
2022/05/15 01:32:58;;;;;;;20.92;7.15;;;;;;;;;;5055036;28;20434;-28
2022/05/15 01:35:25;;;;;;;19.08;7.18;;;;;;;;;;5048694;28;20041;-29
2022/05/15 01:37:51;;;;;;;18.60;6.47;;;;;;;;;;5045247;28;20044;-30
2022/05/15 01:40:17;;;;;;;18.95;6.93;;;;;;;;;;5053016;28;20486;-28
2022/05/15 01:42:43;;;;;;;22.45;7.00;;;;;;;;;;5053665;28;20041;-30
2022/05/15 01:45:11;;;;;;;22.02;7.55;;;;;;;;;;5025356;28;20037;-28
2022/05/15 01:47:37;;;;;;;24.85;8.23;;;;;;;;;;5016569;28;20033;-28
2022/05/15 01:50:03;;;;;;;15.63;6.05;;;;;;;;;;5042790;28;20069;-28
2022/05/15 01:52:29;;;;;;;16.90;6.97;;;;;;;;;;5039582;28;20055;-28
2022/05/15 01:54:56;;;;;;;20.08;7.10;;;;;;;;;;5028379;28;20131;-28
2022/05/15 01:57:22;;;;;;;20.08;7.65;;;;;;;;;;5040215;28;20044;-29
2022/05/15 01:59:48;;;;;;;21.30;7.22;;;;;;;;;;5049646;28;20068;-29
2022/05/15 02:02:14;;;;;;;21.48;7.10;;;;;;;;;;5050393;28;20036;-29
2022/05/15 02:04:40;;;;;;;22.08;7.30;;;;;;;;;;5052620;28;20082;-29
2022/05/15 02:07:07;;;;;;;14.18;5.85;;;;;;;;;;5048565;28;20041;-29
2022/05/15 02:09:33;;;;;;;17.50;6.95;;;;;;;;;;5053641;28;20103;-28
2022/05/15 02:11:59;;;;;;;18.95;7.00;;;;;;;;;;5053040;28;20047;-30
2022/05/15 02:14:25;;;;;;;16.58;6.80;;;;;;;;;;5053610;28;20442;-30
2022/05/15 02:16:51;;;;;;;17.67;6.53;;;;;;;;;;5045187;28;20285;-31
2022/05/15 02:19:18;;;;;;;17.88;6.45;;;;;;;;;;5040500;28;20045;-31
2022/05/15 02:21:45;;;;;;;19.88;8.23;;;;;;;;;;5052770;28;20072;-31
2022/05/15 02:24:12;;;;;;;19.13;6.85;;;;;;;;;;5043706;28;20048;-31
2022/05/15 02:26:38;;;;;;;19.88;6.95;;;;;;;;;;5045731;28;20041;-30
2022/05/15 02:29:05;;;;;;;20.65;7.15;;;;;;;;;;5052795;28;20139;-32
2022/05/15 02:31:31;;;;;;;17.23;6.75;;;;;;;;;;5047658;28;20621;-33
2022/05/15 02:34:00;;;;;;;18.70;7.15;;;;;;;;;;5049126;28;20045;-33
2022/05/15 02:36:27;;;;;;;26.02;7.95;;;;;;;;;;5015447;28;20395;-31
2022/05/15 02:38:53;;;;;;;18.08;6.60;;;;;;;;;;5030377;28;20029;-31
2022/05/15 02:41:19;;;;;;;18.90;7.47;;;;;;;;;;5033171;28;20100;-33
2022/05/15 02:43:46;;;;;;;20.77;7.80;;;;;;;;;;5052265;28;20560;-31
2022/05/15 02:46:12;;;;;;;20.98;7.70;;;;;;;;;;5033039;28;20049;-31
2022/05/15 02:51:23;;;;;;;13.13;6.90;;;;;;;;;;5018436;28;20072;-32
2022/05/15 02:53:49;;;;;;;18.17;7.25;;;;;;;;;;5052437;28;20044;-30
2022/05/15 02:56:25;;;;;;;15.27;6.05;;;;;;;;;;5044788;28;20425;-31
2022/05/15 02:58:52;;;;;;;16.70;7.43;;;;;;;;;;5038135;28;20037;-30
2022/05/15 03:01:18;;;;;;;19.83;7.25;;;;;;;;;;5046637;28;20029;-31
2022/05/15 03:03:44;;;;;;;17.10;6.85;;;;;;;;;;5050117;28;20462;-33
2022/05/15 03:06:11;;;;;;;19.77;7.35;;;;;;;;;;5051248;28;20548;-31
2022/05/15 03:08:39;;;;;;;18.42;6.82;;;;;;;;;;5048011;28;20493;-30
2022/05/15 03:11:06;;;;;;;20.08;7.45;;;;;;;;;;5051066;28;20094;-30
2022/05/15 03:13:32;;;;;;;21.95;8.93;;;;;;;;;;5045099;28;20063;-31
2022/05/15 03:15:58;;;;;;;17.70;7.65;;;;;;;;;;5050179;28;20548;-31
2022/05/15 03:18:24;;;;;;;16.73;6.65;;;;;;;;;;5048307;28;20105;-30
2022/05/15 03:20:50;;;;;;;20.45;7.50;;;;;;;;;;5041720;28;20048;-32
2022/05/15 03:23:17;;;;;;;17.20;7.50;;;;;;;;;;5047228;28;20051;-32
2022/05/15 03:25:43;;;;;;;18.17;7.45;;;;;;;;;;5049527;28;20086;-31
2022/05/15 03:28:09;;;;;;;22.88;8.75;;;;;;;;;;5051231;28;20037;-33
2022/05/15 03:30:39;;;;;;;24.17;8.13;;;;;;;;;;5047837;28;20491;-31
2022/05/15 03:33:06;;;;;;;16.85;7.85;;;;;;;;;;5048201;28;20437;-31
2022/05/15 03:35:32;;;;;;;15.82;7.55;;;;;;;;;;5041749;28;20045;-31
2022/05/15 03:37:58;;;;;;;16.80;7.60;;;;;;;;;;5049063;28;20524;-27
2022/05/15 03:40:25;;;;;;;19.70;8.65;;;;;;;;;;5034471;28;20049;-29
2022/05/15 03:42:51;;;;;;;20.30;8.88;;;;;;;;;;5052317;28;20076;-29
2022/05/15 03:45:18;;;;;;;22.05;8.73;;;;;;;;;;5052048;28;20033;-30
2022/05/15 03:47:45;;;;;;;24.88;8.65;;;;;;;;;;5051340;28;20033;-30
2022/05/15 03:50:11;;;;;;;17.70;8.05;;;;;;;;;;5051969;28;20087;-30
2022/05/15 03:52:37;;;;;;;25.58;9.32;;;;;;;;;;5033430;28;20099;-29
2022/05/15 03:55:03;;;;;;;22.52;8.70;;;;;;;;;;5051260;28;20040;-29
2022/05/15 03:57:29;;;;;;;22.02;9.00;;;;;;;;;;5050911;28;20476;-29
2022/05/15 03:59:55;;;;;;;22.52;9.93;;;;;;;;;;5051115;28;20083;-30
2022/05/15 04:02:22;;;;;;;20.60;8.43;;;;;;;;;;5051731;28;20474;-30
2022/05/15 04:04:48;;;;;;;21.83;8.40;;;;;;;;;;5033020;28;20044;-29
2022/05/15 04:07:14;;;;;;;20.60;7.68;;;;;;;;;;5051588;28;20041;-29
2022/05/15 04:09:40;;;;;;;16.33;6.85;;;;;;;;;;5050932;28;20127;-28
2022/05/15 04:12:08;;;;;;;21.20;8.23;;;;;;;;;;5051635;28;20048;-29
2022/05/15 04:14:34;;;;;;;16.30;7.63;;;;;;;;;;5049383;28;20257;-36
2022/05/15 04:17:00;;;;;;;19.42;7.75;;;;;;;;;;5038745;28;20120;-33
2022/05/15 04:19:27;;;;;;;22.15;8.68;;;;;;;;;;5048100;28;20041;-32
2022/05/15 04:21:53;;;;;;;19.58;9.57;;;;;;;;;;5043258;28;20037;-31
2022/05/15 04:24:19;;;;;;;17.80;8.48;;;;;;;;;;5039709;28;20123;-34
2022/05/15 04:26:49;;;;;;;19.85;9.30;;;;;;;;;;5044368;28;20041;-33
2022/05/15 04:29:16;;;;;;;22.30;8.30;;;;;;;;;;5043706;28;20099;-31
2022/05/15 04:31:42;;;;;;;26.27;9.07;;;;;;;;;;5049874;28;20041;-32
2022/05/15 04:34:08;;;;;;;18.95;7.20;;;;;;;;;;5041946;28;20045;-31
2022/05/15 04:36:34;;;;;;;22.08;8.70;;;;;;;;;;5048631;28;20107;-33
2022/05/15 04:39:04;;;;;;;21.17;8.55;;;;;;;;;;5047689;28;20041;-31
2022/05/15 04:41:30;;;;;;;24.38;8.48;;;;;;;;;;5044112;28;20033;-33
2022/05/15 04:43:56;;;;;;;20.02;8.75;;;;;;;;;;5042466;28;20534;-32
2022/05/15 04:46:25;;;;;;;21.42;9.10;;;;;;;;;;5047758;28;20036;-33
2022/05/15 04:48:52;;;;;;;15.38;7.35;;;;;;;;;;5044195;28;20427;-33
2022/05/15 04:51:18;;;;;;;24.30;8.23;;;;;;;;;;5049936;28;20072;-33
2022/05/15 04:53:44;;;;;;;21.08;8.13;;;;;;;;;;5044407;28;20042;-31
2022/05/15 04:56:10;;;;;;;22.90;7.97;;;;;;;;;;5041513;28;20037;-31
2022/05/15 04:58:36;;;;;;;20.85;8.55;;;;;;;;;;5045122;28;20061;-32
2022/05/15 05:01:02;;;;;;;20.95;9.30;;;;;;;;;;5044233;28;20049;-32
2022/05/15 05:03:29;;;;;;;16.90;8.13;;;;;;;;;;5035679;28;20514;-33
2022/05/15 05:05:55;;;;;;;21.15;8.48;;;;;;;;;;5035104;28;20044;-32
2022/05/15 05:08:21;;;;;;;28.08;10.35;;;;;;;;;;5038365;28;20040;-32
2022/05/15 05:10:47;;;;;;;25.48;7.97;;;;;;;;;;5050321;28;20566;-33
2022/05/15 05:13:13;;;;;;;20.52;8.27;;;;;;;;;;5042553;28;20568;-34
2022/05/15 05:15:40;;;;;;;21.83;8.38;;;;;;;;;;5035938;28;20037;-32
2022/05/15 05:18:06;;;;;;;30.08;8.73;;;;;;;;;;5041662;28;20041;-31
2022/05/15 05:20:32;;;;;;;20.90;8.77;;;;;;;;;;5032844;28;20073;-31
2022/05/15 05:22:58;;;;;;;20.45;8.07;;;;;;;;;;5039639;28;20029;-34
2022/05/15 05:25:24;;;;;;;25.50;8.77;;;;;;;;;;5023081;28;20042;-31
2022/05/15 05:27:51;;;;;;;24.73;8.57;;;;;;;;;;5035546;28;20126;-34
2022/05/15 05:30:22;;;;;;;23.58;8.02;;;;;;;;;;5031893;28;20107;-30
2022/05/15 05:32:48;;;;;;;20.10;8.55;;;;;;;;;;5035886;28;20094;-35
2022/05/15 05:35:15;;;;;;;22.25;9.82;;;;;;;;;;5038505;28;20152;-31
2022/05/15 05:37:41;;;;;;;23.63;8.85;;;;;;;;;;5038268;28;20045;-31
2022/05/15 05:40:08;;;;;;;15.68;7.65;;;;;;;;;;5035328;28;20233;-29
2022/05/15 05:42:34;;;;;;;20.45;8.48;;;;;;;;;;5032698;28;20029;-32
2022/05/15 05:45:02;;;;;;;16.13;7.82;;;;;;;;;;5024233;28;20040;-32
2022/05/15 05:47:29;;;;;;;19.00;8.02;;;;;;;;;;5043454;28;20089;-32
2022/05/15 05:49:56;;;;;;;23.27;9.32;;;;;;;;;;5040450;28;20045;-30
2022/05/15 05:52:23;;;;;;;20.23;7.47;;;;;;;;;;5023052;28;20116;-29
2022/05/15 05:54:50;;;;;;;19.75;8.40;;;;;;;;;;5041797;28;20435;-31
2022/05/15 05:57:16;;;;;;;20.60;8.02;;;;;;;;;;5054833;28;20037;-31
2022/05/15 05:59:42;;;;;;;23.92;8.68;;;;;;;;;;5052925;28;20053;-30
2022/05/15 06:02:08;;;;;;;17.65;8.18;;;;;;;;;;5054246;28;20446;-31
2022/05/15 06:04:44;;;;;;;21.10;8.38;;;;;;;;;;5052878;28;20120;-29
2022/05/15 06:07:14;;;;;;;19.80;8.48;;;;;;;;;;5054223;28;20510;-29
2022/05/15 06:09:42;;;;;;;18.67;7.18;;;;;;;;;;5053795;28;20045;-30
2022/05/15 06:12:09;;;;;;;20.05;7.50;;;;;;;;;;5053391;28;20040;-30
2022/05/15 06:14:35;;;;;;;22.15;8.18;;;;;;;;;;5053000;28;20124;-30
2022/05/15 06:17:01;;;;;;;22.45;7.63;;;;;;;;;;5053282;28;20076;-29
2022/05/15 06:19:28;;;;;;;21.50;8.00;;;;;;;;;;5047629;28;20045;-32
2022/05/15 06:21:54;;;;;;;15.48;6.50;;;;;;;;;;5016872;28;20037;-30
2022/05/15 06:24:20;;;;;;;16.08;6.90;;;;;;;;;;5038576;28;20044;-32
2022/05/15 06:26:46;;;;;;;23.73;7.78;;;;;;;;;;5035592;28;20048;-30
2022/05/15 06:29:12;;;;;;;17.35;7.03;;;;;;;;;;5036734;28;20080;-31
2022/05/15 06:31:38;;;;;;;18.73;7.03;;;;;;;;;;5035516;28;20045;-33
2022/05/15 06:34:05;;;;;;;17.88;6.13;;;;;;;;;;5036521;28;20052;-31
2022/05/15 06:36:31;;;;;;;13.63;5.93;;;;;;;;;;5040587;28;20415;-31
2022/05/15 06:38:57;;;;;;;15.02;5.53;;;;;;;;;;5030941;28;20273;-31
2022/05/15 06:41:24;;;;;;;12.68;5.78;;;;;;;;;;5031638;28;20487;-31
2022/05/15 06:43:51;;;;;;;9.93;5.32;;;;;;;;;;5034713;28;20117;-33
2022/05/15 06:46:17;;;;;;;18.63;6.45;;;;;;;;;;5029479;28;20033;-31
2022/05/15 06:48:43;;;;;;;14.70;5.88;;;;;;;;;;5019975;28;20052;-30
2022/05/15 06:51:14;;;;;;;15.70;5.30;;;;;;;;;;5030889;28;20037;-32
2022/05/15 06:53:41;;;;;;;15.75;5.80;;;;;;;;;;5035118;28;20120;-32
2022/05/15 06:58:53;;;;;;;12.93;5.05;;;;;;;;;;5037152;28;20044;-32
2022/05/15 07:01:19;;;;;;;14.15;5.97;;;;;;;;;;5032041;28;20600;-31
2022/05/15 07:03:45;;;;;;;16.13;5.65;;;;;;;;;;5038305;28;20047;-33
2022/05/15 07:06:11;;;;;;;16.35;5.65;;;;;;;;;;5016361;28;20513;-30
2022/05/15 07:08:39;;;;;;;9.95;4.47;;;;;;;;;;5029221;28;20092;-31
2022/05/15 07:11:05;;;;;;;11.45;4.40;;;;;;;;;;5047460;28;20044;-32
2022/05/15 07:13:32;;;;;;;13.25;4.68;;;;;;;;;;5032014;28;20044;-30
2022/05/15 07:15:58;;;;;;;12.13;4.38;;;;;;;;;;5040348;28;20391;-31
2022/05/15 07:18:25;;;;;;;13.27;4.32;;;;;;;;;;5031427;28;20037;-32
2022/05/15 07:20:51;;;;;;;12.93;4.45;;;;;;;;;;5032353;28;20111;-31
2022/05/15 07:23:19;;;;;;;12.65;4.32;;;;;;;;;;5043958;28;20028;-31
2022/05/15 07:25:45;;;;;;;14.75;4.72;;;;;;;;;;5034225;28;20107;-32
2022/05/15 07:28:11;;;;;;;12.15;4.30;;;;;;;;;;5039127;28;20036;-31
2022/05/15 07:30:38;;;;;;;18.13;4.82;;;;;;;;;;5035030;28;20044;-31
2022/05/15 07:33:04;;;;;;;17.33;4.80;;;;;;;;;;5032454;28;20457;-31
2022/05/15 07:35:31;;;;;;;14.63;5.03;;;;;;;;;;5035793;28;20124;-32
2022/05/15 07:37:57;;;;;;;12.57;4.25;;;;;;;;;;5035106;28;20228;-32
2022/05/15 07:40:23;;;;;;;12.23;4.65;;;;;;;;;;5041629;28;20037;-31
2022/05/15 07:42:49;;;;;;;15.23;4.40;;;;;;;;;;5037989;28;20123;-31
2022/05/15 07:45:16;;;;;;;12.00;4.00;;;;;;;;;;5037780;28;20356;-31
2022/05/15 07:47:43;;;;;;;12.38;4.43;;;;;;;;;;5038187;28;20403;-31
2022/05/15 07:50:09;;;;;;;14.18;5.00;;;;;;;;;;5044313;28;20087;-31
2022/05/15 07:52:36;;;;;;;11.88;4.15;;;;;;;;;;5039425;28;20042;-31
2022/05/15 07:55:02;;;;;;;13.15;4.35;;;;;;;;;;5040027;28;20120;-31
2022/05/15 07:57:28;;;;;;;14.65;4.70;;;;;;;;;;5036804;28;20049;-31
2022/05/15 07:59:56;;;;;;;15.95;4.38;;;;;;;;;;5033219;28;20723;-31
2022/05/15 08:02:22;;;;;;;15.45;4.68;;;;;;;;;;5038475;28;20138;-32
2022/05/15 08:10:17;;;;;;;13.50;5.20;;;;;;;;;;5031453;28;20365;-30
2022/05/15 08:12:43;;;;;;;15.43;4.38;;;;;;;;;;5031809;28;20140;-31
2022/05/15 08:15:09;;;;;;;13.52;4.40;;;;;;;;;;5014478;28;20163;-29
2022/05/15 08:17:36;;;;;;;14.02;4.85;;;;;;;;;;5031734;28;20041;-30
2022/05/15 08:25:31;;;;;;;16.38;5.43;;;;;;;;;;5051836;28;20068;-29
2022/05/15 08:27:57;;;;;;;10.85;3.90;;;;;;;;;;5051611;28;20037;-31
2022/05/15 08:30:23;;;;;;;13.70;3.95;;;;;;;;;;5051435;28;20094;-30
2022/05/15 08:32:53;;;;;;;14.82;5.05;;;;;;;;;;5050578;28;20037;-31
2022/05/15 08:35:19;;;;;;;10.30;4.18;;;;;;;;;;5051751;28;20486;-29
2022/05/15 08:37:45;;;;;;;11.82;4.50;;;;;;;;;;5052190;28;20037;-31
2022/05/15 08:40:12;;;;;;;10.55;3.72;;;;;;;;;;5050968;28;20120;-31
2022/05/15 08:42:54;;;;;;;14.43;5.07;;;;;;;;;;5050772;28;20412;-30
2022/05/15 08:45:23;;;;;;;9.93;4.15;;;;;;;;;;5050908;28;20143;-30
2022/05/15 08:47:53;;;;;;;11.85;4.30;;;;;;;;;;5051055;28;20044;-31
2022/05/15 08:50:21;;;;;;;12.23;4.05;;;;;;;;;;5032958;28;20047;-30
2022/05/15 08:52:47;;;;;;;18.40;4.68;;;;;;;;;;5032367;28;20479;-31
2022/05/15 08:55:22;;;;;;;12.30;4.60;;;;;;;;;;5029676;28;20041;-31
2022/05/15 08:57:51;;;;;;;11.43;4.13;;;;;;;;;;5031271;28;20360;-30
2022/05/15 09:00:20;;;;;;;12.57;3.92;;;;;;;;;;5028378;28;20041;-29
2022/05/15 09:02:47;;;;;;;31.27;6.07;;;;;;;;;;5027178;28;20044;-29
2022/05/15 09:05:14;;;;;;;15.30;4.70;;;;;;;;;;5027906;28;20293;-30
2022/05/15 09:07:58;;;;;;;15.13;4.88;;;;;;;;;;5028293;28;20038;-31
2022/05/15 09:10:27;;;;;;;17.05;4.43;;;;;;;;;;5029051;28;20046;-30
2022/05/15 09:13:11;;;;;;;11.73;4.20;;;;;;;;;;5027650;28;20048;-31
2022/05/15 09:15:41;;;;;;;14.25;4.65;;;;;;;;;;5029461;28;20041;-32
2022/05/15 09:18:17;;;;;;;12.45;3.90;;;;;;;;;;5030607;28;20041;-31
2022/05/15 09:21:02;;;;;;;10.82;4.13;;;;;;;;;;5030961;28;20038;-30
2022/05/15 09:23:39;;;;;;;16.40;5.40;;;;;;;;;;5034620;28;20040;-30
2022/05/15 09:26:08;;;;;;;9.10;3.60;;;;;;;;;;5050023;28;20037;-30
2022/05/15 09:29:02;;;;;;;13.32;4.38;;;;;;;;;;5032108;28;20041;-31
2022/05/15 09:31:34;;;;;;;11.57;4.35;;;;;;;;;;5046859;28;20622;-30
2022/05/15 09:34:02;;;;;;;12.90;4.13;;;;;;;;;;5050776;28;20041;-31
2022/05/15 09:36:38;;;;;;;13.77;3.97;;;;;;;;;;5053761;28;20040;-31
2022/05/15 09:39:14;;;;;;;14.20;4.03;;;;;;;;;;5053330;28;20037;-30
2022/05/15 09:44:30;;;;;;;11.73;4.38;;;;;;;;;;5054312;28;20540;-31
2022/05/15 09:47:00;;;;;;;11.55;4.35;;;;;;;;;;5054160;28;20041;-30
2022/05/15 09:49:29;;;;;;;13.40;4.07;;;;;;;;;;5035955;28;20051;-30
2022/05/15 09:51:58;;;;;;;11.80;4.65;;;;;;;;;;5053111;28;20068;-30
2022/05/15 09:54:31;;;;;;;15.32;4.72;;;;;;;;;;5041912;28;20045;-34
2022/05/15 09:57:16;;;;;;;14.45;5.15;;;;;;;;;;5033218;28;20139;-34
2022/05/15 09:59:43;;;;;;;10.07;4.43;;;;;;;;;;5050718;28;20086;-35
2022/05/15 10:02:20;;;;;;;14.80;4.25;;;;;;;;;;5027664;28;20120;-32
2022/05/15 10:04:48;;;;;;;9.57;3.60;;;;;;;;;;5041795;28;20041;-34
2022/05/15 10:07:29;;;;;;;11.20;4.22;;;;;;;;;;5045028;28;20079;-32
2022/05/15 10:09:55;;;;;;;15.68;4.65;;;;;;;;;;5051086;28;20070;-33
2022/05/15 10:12:21;;;;;;;11.88;4.53;;;;;;;;;;5022643;28;20110;-33
2022/05/15 10:14:59;;;;;;;10.65;4.25;;;;;;;;;;5038438;28;20044;-33
2022/05/15 10:17:25;;;;;;;13.95;4.60;;;;;;;;;;5036646;28;20069;-32
2022/05/15 10:19:53;;;;;;;10.63;3.90;;;;;;;;;;5036310;28;20064;-34
2022/05/15 10:22:19;;;;;;;12.98;4.45;;;;;;;;;;5023490;28;20037;-35
2022/05/15 10:24:46;;;;;;;13.05;4.15;;;;;;;;;;5034159;28;20045;-33
2022/05/15 10:27:19;;;;;;;13.13;4.25;;;;;;;;;;5040201;28;20037;-32
2022/05/15 10:29:58;;;;;;;9.75;4.13;;;;;;;;;;5038770;28;20064;-31
2022/05/15 10:32:35;;;;;;;12.68;4.55;;;;;;;;;;5037926;28;20486;-32
2022/05/15 10:35:01;;;;;;;10.35;4.15;;;;;;;;;;5038045;28;20049;-34
2022/05/15 10:37:46;;;;;;;11.23;4.10;;;;;;;;;;5042358;28;20510;-32
2022/05/15 10:40:18;;;;;;;10.15;4.15;;;;;;;;;;5036950;28;20044;-32
2022/05/15 10:42:44;;;;;;;;;;;;;;;;;;5049819;28;20033;-31
2022/05/15 10:45:20;;;;;;;11.25;4.13;;;;;;;;;;5046206;28;19979;-32
2022/05/15 10:47:49;;;;;;;11.65;3.85;;;;;;;;;;5036188;28;20170;-36
2022/05/15 10:50:24;;;;;;;12.95;4.38;;;;;;;;;;5046349;28;20029;-31
2022/05/15 10:57:21;;;;;;;14.13;4.38;;;;;;;;;;5038978;28;20069;-33
2022/05/15 10:59:21;;;;;;;12.80;4.38;;;;;;;;;;5026730;28;20112;-31
2022/05/15 11:01:53;;;;;;;7.18;3.47;;;;;;;;;;5049110;28;20033;-34
2022/05/15 11:04:38;;;;;;;8.88;4.20;;;;;;;;;;5040562;28;20044;-32
2022/05/15 11:07:27;;;;;;;8.77;3.55;;;;;;;;;;5023505;28;20049;-32
2022/05/15 11:09:53;;;;;;;14.00;4.40;;;;;;;;;;5030673;28;20041;-32
2022/05/15 11:12:31;;;;;;;9.85;3.20;;;;;;;;;;5047407;28;20048;-33
2022/05/15 11:15:06;;;;;;;9.57;3.83;;;;;;;;;;5042577;28;20531;-34
2022/05/15 11:17:41;;;;;;;11.32;3.72;;;;;;;;;;5044140;28;20040;-35
2022/05/15 11:20:27;;;;;;;7.53;3.97;;;;;;;;;;5043776;28;20069;-34
2022/05/15 11:22:57;;;;;;;9.00;3.63;;;;;;;;;;5043746;28;20047;-34
2022/05/15 11:25:24;;;;;;;10.30;3.67;;;;;;;;;;5045136;28;20033;-37
2022/05/15 11:27:55;;;;;;;13.95;3.85;;;;;;;;;;5024503;28;20076;-34
2022/05/15 11:30:24;;;;;;;8.15;3.25;;;;;;;;;;5050223;28;20049;-34
2022/05/15 11:32:53;;;;;;;9.98;3.80;;;;;;;;;;5041125;28;20522;-33
2022/05/15 11:35:20;;;;;;;11.20;3.90;;;;;;;;;;5047479;28;20037;-36
2022/05/15 11:38:05;;;;;;;10.77;4.00;;;;;;;;;;5044317;28;20547;-33
2022/05/15 11:40:31;;;;;;;11.82;3.83;;;;;;;;;;5048298;28;20044;-33
2022/05/15 11:42:58;;;;;;;9.05;3.35;;;;;;;;;;5051150;28;20148;-35
2022/05/15 11:45:30;;;;;;;10.45;3.78;;;;;;;;;;5012404;28;20040;-34
2022/05/15 11:47:56;;;;;;;;;;;;;;;;;;5046422;28;20037;-34
2022/05/15 11:50:30;;;;;;;14.13;4.18;;;;;;;;;;5048905;28;20346;-31
2022/05/15 11:52:56;;;;;;;10.88;3.95;;;;;;;;;;5042706;28;20125;-32
2022/05/15 11:55:38;;;;;;;10.55;4.03;;;;;;;;;;5034161;28;20041;-32
2022/05/15 11:58:10;;;;;;;12.23;4.57;;;;;;;;;;5051445;28;20049;-30
2022/05/15 12:00:39;;;;;;;;;;;;;;;;;;5040056;28;20124;-31
2022/05/15 12:03:25;;;;;;;8.15;3.35;;;;;;;;;;5053108;28;19921;-31
2022/05/15 12:06:23;;;;;;;8.70;3.65;;;;;;;;;;5052467;28;20037;-31
2022/05/15 12:08:51;;;;;;;11.25;3.67;;;;;;;;;;5028346;28;20049;-30
2022/05/15 12:11:34;;;;;;;10.43;3.78;;;;;;;;;;5024344;28;20116;-30
2022/05/15 12:14:20;;;;;;;8.25;3.55;;;;;;;;;;5026313;28;20045;-31
2022/05/15 12:17:03;;;;;;;7.93;3.63;;;;;;;;;;5044814;28;20055;-30
2022/05/15 12:19:40;;;;;;;10.80;3.53;;;;;;;;;;5049877;28;20080;-40
2022/05/15 12:22:11;;;;;;;7.55;3.17;;;;;;;;;;5050159;28;20414;-31
2022/05/15 12:24:38;;;;;;;7.78;3.05;;;;;;;;;;5040481;28;20475;-32
2022/05/15 12:27:13;;;;;;;11.00;3.72;;;;;;;;;;5039975;28;20076;-31
2022/05/15 12:29:44;;;;;;;9.05;3.47;;;;;;;;;;5052074;28;20102;-31
2022/05/15 12:32:12;;;;;;;6.47;3.20;;;;;;;;;;5033886;28;20041;-30
2022/05/15 12:34:48;;;;;;;6.93;3.05;;;;;;;;;;5050711;28;20483;-31
2022/05/15 12:37:19;;;;;;;6.78;3.33;;;;;;;;;;5023903;28;20095;-34
2022/05/15 12:39:47;;;;;;;8.35;3.33;;;;;;;;;;5041442;28;20102;-33
2022/05/15 12:42:21;;;;;;;9.77;3.40;;;;;;;;;;5017720;28;20037;-35
2022/05/15 12:44:47;;;;;;;8.27;3.28;;;;;;;;;;5047446;28;20041;-34
2022/05/15 12:47:21;;;;;;;7.63;3.20;;;;;;;;;;5000511;28;20051;-33
2022/05/15 12:49:48;;;;;;;6.53;2.88;;;;;;;;;;5041726;28;20514;-35
2022/05/15 12:52:16;;;;;;;8.75;3.22;;;;;;;;;;5032203;28;20371;-35
2022/05/15 12:54:43;;;;;;;10.40;3.28;;;;;;;;;;5039774;28;20445;-32
2022/05/15 12:57:13;;;;;;;9.77;3.63;;;;;;;;;;5007837;28;20068;-32
2022/05/15 12:59:41;;;;;;;9.77;3.55;;;;;;;;;;5035351;28;20033;-33
2022/05/15 13:02:26;;;;;;;12.13;3.50;;;;;;;;;;5039421;28;20037;-31
2022/05/15 13:04:53;;;;;;;12.20;3.40;;;;;;;;;;5027894;28;20387;-33
2022/05/15 13:07:24;;;;;;;9.32;3.42;;;;;;;;;;5040952;28;20123;-31
2022/05/15 13:10:01;;;;;;;8.85;3.33;;;;;;;;;;5026785;28;20037;-33
2022/05/15 13:12:27;;;;;;;8.23;3.45;;;;;;;;;;5047518;28;20376;-32
2022/05/15 13:14:54;;;;;;;8.50;3.42;;;;;;;;;;5045812;28;20442;-32
2022/05/15 13:17:29;;;;;;;6.82;2.63;;;;;;;;;;5041924;28;20049;-33
2022/05/15 13:19:56;;;;;;;7.10;2.92;;;;;;;;;;5045525;28;20081;-30
2022/05/15 13:22:24;;;;;;;5.30;2.78;;;;;;;;;;5046534;28;20087;-31
2022/05/15 13:24:53;;;;;;;6.05;3.03;;;;;;;;;;5051094;28;20529;-36
2022/05/15 13:27:19;;;;;;;9.05;3.83;;;;;;;;;;5032010;28;20039;-35
2022/05/15 13:29:45;;;;;;;8.65;3.55;;;;;;;;;;5044554;28;20036;-32
2022/05/15 13:32:13;;;;;;;8.98;3.20;;;;;;;;;;5054830;28;20049;-30
2022/05/15 13:34:40;;;;;;;9.98;3.70;;;;;;;;;;5053318;28;20076;-30
2022/05/15 13:37:12;;;;;;;9.93;3.47;;;;;;;;;;5047173;28;20272;-34
2022/05/15 13:45:15;;;;;;;6.32;2.92;;;;;;;;;;5045058;28;20033;-33
2022/05/15 13:48:00;;;;;;;8.60;3.45;;;;;;;;;;5033651;28;20040;-31
2022/05/15 13:50:45;;;;;;;8.73;2.78;;;;;;;;;;5034294;28;20106;-33
2022/05/15 13:53:17;;;;;;;8.43;3.30;;;;;;;;;;5039965;28;20495;-34
2022/05/15 13:55:43;;;;;;;;;;;;;;;;;;5048662;28;20044;-31
2022/05/15 13:58:09;;;;;;;9.27;3.30;;;;;;;;;;5050829;28;19917;-33
2022/05/15 14:00:36;;;;;;;8.88;3.03;;;;;;;;;;5014272;28;20086;-32
2022/05/15 14:03:07;;;;;;;9.00;3.05;;;;;;;;;;5049972;28;20116;-31
2022/05/15 14:05:36;;;;;;;7.63;2.88;;;;;;;;;;5050131;28;20041;-32
2022/05/15 14:08:17;;;;;;;7.80;3.10;;;;;;;;;;5049000;28;20029;-32
2022/05/15 14:10:43;;;;;;;7.20;3.47;;;;;;;;;;5049482;28;20049;-34
2022/05/15 14:13:10;;;;;;;7.22;3.20;;;;;;;;;;5029908;28;20037;-32
2022/05/15 14:15:51;;;;;;;11.30;3.78;;;;;;;;;;5044875;28;20112;-33
2022/05/15 14:18:21;;;;;;;7.13;2.75;;;;;;;;;;5043672;28;20052;-38
2022/05/15 14:20:49;;;;;;;7.00;2.83;;;;;;;;;;5041152;28;20094;-32
2022/05/15 14:23:23;;;;;;;6.90;3.03;;;;;;;;;;5045968;28;20041;-33
2022/05/15 14:25:54;;;;;;;8.02;3.22;;;;;;;;;;5034025;28;20116;-31
2022/05/15 14:28:20;;;;;;;7.72;2.97;;;;;;;;;;5033722;28;20438;-30
2022/05/15 14:30:47;;;;;;;9.07;3.05;;;;;;;;;;5032803;28;20504;-30
2022/05/15 14:33:18;;;;;;;5.95;3.15;;;;;;;;;;5049942;28;20042;-31
2022/05/15 14:35:45;;;;;;;9.27;2.85;;;;;;;;;;5048208;28;20048;-30
2022/05/15 14:38:12;;;;;;;6.95;3.08;;;;;;;;;;5044424;28;20482;-31
2022/05/15 14:40:38;;;;;;;8.57;2.72;;;;;;;;;;5048620;28;20048;-30
2022/05/15 14:43:04;;;;;;;6.95;2.88;;;;;;;;;;5019860;28;20047;-31
2022/05/15 14:45:32;;;;;;;8.35;3.28;;;;;;;;;;5028893;28;20516;-30
2022/05/15 14:48:02;;;;;;;7.53;2.67;;;;;;;;;;5030924;28;20048;-30
2022/05/15 14:50:29;;;;;;;8.95;3.30;;;;;;;;;;5045324;28;20059;-30
2022/05/15 14:52:57;;;;;;;7.40;2.70;;;;;;;;;;5032825;28;20037;-30
2022/05/15 14:56:07;;;;;;;5.90;2.38;;;;;;;;;;5032354;28;20454;-30
2022/05/15 14:58:11;;;;;;;8.25;2.97;;;;;;;;;;5042211;28;20059;-31
2022/05/15 15:00:37;;;;;;;9.80;3.20;;;;;;;;;;5052249;28;20053;-30
2022/05/15 15:03:03;;;;;;;7.00;2.70;;;;;;;;;;5052478;28;20051;-31
2022/05/15 15:05:44;;;;;;;6.68;3.15;;;;;;;;;;5034928;28;20041;-30
2022/05/15 15:08:31;;;;;;;7.72;2.90;;;;;;;;;;5050662;28;20493;-30
2022/05/15 15:11:09;;;;;;;5.70;2.50;;;;;;;;;;5046908;28;20041;-30
2022/05/15 15:13:35;;;;;;;7.55;2.58;;;;;;;;;;5032979;28;20561;-30